createdAt,value
2022-08-24T00:00:15.948Z,62.31
2022-08-24T00:02:42.515Z,61.36
2022-08-24T00:05:14.009Z,61.39
2022-08-24T00:07:41.487Z,61.74
2022-08-24T00:10:09.457Z,59.55
2022-08-24T00:12:35.954Z,59.74
2022-08-24T00:15:02.561Z,61.85
2022-08-24T00:17:29.019Z,61.97
2022-08-24T00:19:55.461Z,61.89
2022-08-24T00:22:22.358Z,62.03
2022-08-24T00:24:48.788Z,62.99
2022-08-24T00:27:15.186Z,63.04
2022-08-24T00:29:41.692Z,61.80
2022-08-24T00:32:08.248Z,62.37
2022-08-24T00:34:35.803Z,62.61
2022-08-24T00:37:02.300Z,63.12
2022-08-24T00:39:29.097Z,62.91
2022-08-24T00:41:55.550Z,62.92
2022-08-24T00:44:22.720Z,63.40
2022-08-24T00:46:49.181Z,63.88
2022-08-24T00:49:21.692Z,63.25
2022-08-24T00:52:14.302Z,64.16
2022-08-24T00:54:46.414Z,63.15
2022-08-24T00:57:14.742Z,61.93
2022-08-24T00:59:46.950Z,62.54
2022-08-24T01:02:17.333Z,65.18
2022-08-24T01:04:52.721Z,65.17
2022-08-24T01:07:20.893Z,65.99
2022-08-24T01:09:47.389Z,65.14
2022-08-24T01:12:14.052Z,66.00
2022-08-24T01:14:55.853Z,64.46
2022-08-24T01:17:40.883Z,65.38
2022-08-24T01:20:08.711Z,65.10
2022-08-24T01:22:55.356Z,64.97
2022-08-24T01:25:23.483Z,65.65
2022-08-24T01:27:50.267Z,65.62
2022-08-24T01:30:17.401Z,65.74
2022-08-24T01:32:54.714Z,65.91
2022-08-24T01:35:21.355Z,66.33
2022-08-24T01:37:48.269Z,66.44
2022-08-24T01:40:14.932Z,66.04
2022-08-24T01:42:47.107Z,66.40
2022-08-24T01:45:13.717Z,65.66
2022-08-24T01:47:40.172Z,66.92
2022-08-24T01:50:07.104Z,66.27
2022-08-24T01:53:01.608Z,66.59
2022-08-24T01:55:22.729Z,66.09
2022-08-24T01:57:49.372Z,66.49
2022-08-24T02:00:16.142Z,67.91
2022-08-24T02:02:44.002Z,66.61
2022-08-24T02:05:12.176Z,66.00
2022-08-24T02:07:38.684Z,64.36
2022-08-24T02:10:07.235Z,66.11
2022-08-24T02:12:35.003Z,66.54
2022-08-24T02:15:02.764Z,66.79
2022-08-24T02:17:29.715Z,67.21
2022-08-24T02:19:56.181Z,67.21
2022-08-24T02:22:22.612Z,67.22
2022-08-24T02:24:49.087Z,67.54
2022-08-24T02:27:16.418Z,67.08
2022-08-24T02:29:43.455Z,67.51
2022-08-24T02:32:10.929Z,67.99
2022-08-24T02:34:37.447Z,67.79
2022-08-24T02:37:04.020Z,68.34
2022-08-24T02:39:30.527Z,68.68
2022-08-24T02:41:57.298Z,68.79
2022-08-24T02:44:23.797Z,69.03
2022-08-24T02:46:50.520Z,69.29
2022-08-24T02:49:17.022Z,68.79
2022-08-24T02:51:45.425Z,69.52
2022-08-24T02:54:12.959Z,70.09
2022-08-24T02:56:39.777Z,71.61
2022-08-24T02:59:06.485Z,70.29
2022-08-24T03:01:32.997Z,71.32
2022-08-24T03:03:59.550Z,71.09
2022-08-24T03:06:26.091Z,69.69
2022-08-24T03:08:56.314Z,70.81
2022-08-24T03:11:27.596Z,70.47
2022-08-24T03:13:55.404Z,70.67
2022-08-24T03:16:21.912Z,70.63
2022-08-24T03:18:48.338Z,69.23
2022-08-24T03:21:15.219Z,70.27
2022-08-24T03:23:41.667Z,70.07
2022-08-24T03:26:08.149Z,70.13
2022-08-24T03:28:34.600Z,69.74
2022-08-24T03:31:01.161Z,71.64
2022-08-24T03:33:27.673Z,69.96
2022-08-24T03:35:54.662Z,70.43
2022-08-24T03:38:21.357Z,70.41
2022-08-24T03:40:48.034Z,70.66
2022-08-24T03:43:34.633Z,71.11
2022-08-24T03:46:02.938Z,70.54
2022-08-24T03:48:30.262Z,71.94
2022-08-24T03:50:56.816Z,70.89
2022-08-24T03:53:23.405Z,70.97
2022-08-24T03:55:49.932Z,71.73
2022-08-24T03:58:17.487Z,71.78
2022-08-24T04:00:44.558Z,71.64
2022-08-24T04:03:11.803Z,71.75
2022-08-24T04:05:39.187Z,72.59
2022-08-24T04:08:06.433Z,72.03
2022-08-24T04:10:33.337Z,72.28
2022-08-24T04:13:02.829Z,72.25
2022-08-24T04:15:31.755Z,72.80
2022-08-24T04:17:58.237Z,71.74
2022-08-24T04:20:25.849Z,73.60
2022-08-24T04:22:53.582Z,74.36
2022-08-24T04:25:24.635Z,74.22
2022-08-24T04:27:51.648Z,72.25
2022-08-24T04:30:18.108Z,74.18
2022-08-24T04:32:44.564Z,72.66
2022-08-24T04:35:11.012Z,72.84
2022-08-24T04:37:38.189Z,73.03
2022-08-24T04:40:05.368Z,73.00
2022-08-24T04:42:32.259Z,72.72
2022-08-24T04:44:59.954Z,72.65
2022-08-24T04:47:26.530Z,73.76
2022-08-24T04:49:52.960Z,73.36
2022-08-24T04:52:19.455Z,72.28
2022-08-24T04:54:45.880Z,73.76
2022-08-24T04:57:17.758Z,74.06
2022-08-24T04:59:44.702Z,75.35
2022-08-24T05:02:11.280Z,74.77
2022-08-24T05:04:37.819Z,74.41
2022-08-24T05:07:04.768Z,74.18
2022-08-24T05:09:31.798Z,74.09
2022-08-24T05:11:58.265Z,74.30
2022-08-24T05:14:28.605Z,75.22
2022-08-24T05:16:55.515Z,74.19
2022-08-24T05:19:23.309Z,73.95
2022-08-24T05:21:49.945Z,74.51
2022-08-24T05:24:16.521Z,73.92
2022-08-24T05:26:43.609Z,75.32
2022-08-24T05:29:10.718Z,75.69
2022-08-24T05:31:37.347Z,74.36
2022-08-24T05:34:04.164Z,73.45
2022-08-24T05:36:32.430Z,74.23
2022-08-24T05:39:00.724Z,73.91
2022-08-24T05:41:27.960Z,74.89
2022-08-24T05:43:54.681Z,74.38
2022-08-24T05:46:21.122Z,73.87
2022-08-24T05:48:52.642Z,75.36
2022-08-24T05:51:20.134Z,73.86
2022-08-24T05:53:46.598Z,75.44
2022-08-24T05:56:14.737Z,76.14
2022-08-24T05:58:41.316Z,76.93
2022-08-24T06:01:18.626Z,76.82
2022-08-24T06:03:45.575Z,75.42
2022-08-24T06:06:12.932Z,75.67
2022-08-24T06:08:41.766Z,75.14
2022-08-24T06:11:08.626Z,75.71
2022-08-24T06:13:35.967Z,77.07
2022-08-24T06:16:27.943Z,76.53
2022-08-24T06:18:54.687Z,76.65
2022-08-24T06:21:22.679Z,76.72
2022-08-24T06:23:51.106Z,76.10
2022-08-24T06:26:36.732Z,75.14
2022-08-24T06:29:03.596Z,74.89
2022-08-24T06:31:39.437Z,74.16
2022-08-24T06:34:09.094Z,73.33
2022-08-24T06:36:35.723Z,74.08
2022-08-24T06:39:02.193Z,74.07
2022-08-24T06:41:28.699Z,73.70
2022-08-24T06:43:55.190Z,73.57
2022-08-24T06:46:25.021Z,74.16
2022-08-24T06:48:54.199Z,73.32
2022-08-24T06:51:22.620Z,72.26
2022-08-24T06:53:50.534Z,70.18
2022-08-24T06:56:17.954Z,67.86
2022-08-24T06:58:45.022Z,66.41
2022-08-24T07:01:16.678Z,65.84
2022-08-24T07:03:45.295Z,63.91
2022-08-24T07:06:12.669Z,63.67
2022-08-24T07:08:39.283Z,61.23
2022-08-24T07:11:06.045Z,61.42
2022-08-24T07:13:33.199Z,59.90
2022-08-24T07:16:00.783Z,60.43
2022-08-24T07:18:27.936Z,57.66
2022-08-24T07:20:54.402Z,57.75
2022-08-24T07:23:21.425Z,55.64
2022-08-24T07:25:50.485Z,54.81
2022-08-24T07:28:18.031Z,54.34
2022-08-24T07:30:58.393Z,54.34
2022-08-24T07:33:24.907Z,53.52
2022-08-24T07:35:51.340Z,51.03
2022-08-24T07:38:22.151Z,50.18
2022-08-24T07:41:09.753Z,51.00
2022-08-24T07:43:35.180Z,49.53
2022-08-24T07:46:06.516Z,47.13
2022-08-24T07:48:33.015Z,47.57
2022-08-24T07:51:06.650Z,46.22
2022-08-24T07:53:52.442Z,45.97
2022-08-24T07:56:19.578Z,45.95
2022-08-24T07:58:46.112Z,46.13
2022-08-24T08:01:12.615Z,45.96
2022-08-24T08:03:39.167Z,46.34
2022-08-24T08:06:10.153Z,46.45
2022-08-24T08:08:41.335Z,45.42
2022-08-24T08:11:08.998Z,45.62
2022-08-24T08:13:37.209Z,44.65
2022-08-24T08:16:07.891Z,44.41
2022-08-24T08:18:35.699Z,44.66
2022-08-24T08:21:03.160Z,45.17
2022-08-24T08:23:48.361Z,45.62
2022-08-24T08:26:16.886Z,44.83
2022-08-24T08:28:43.484Z,44.96
2022-08-24T08:31:10.489Z,45.90
2022-08-24T08:33:38.704Z,45.63
2022-08-24T08:36:10.402Z,46.20
2022-08-24T08:38:37.252Z,45.92
2022-08-24T08:41:13.044Z,46.19
2022-08-24T08:43:48.675Z,45.97
2022-08-24T08:46:24.144Z,46.33
2022-08-24T08:49:10.830Z,46.36
2022-08-24T08:51:56.664Z,46.56
2022-08-24T08:54:43.851Z,47.01
2022-08-24T08:57:32.685Z,47.33
2022-08-24T09:00:22.686Z,47.09
2022-08-24T09:02:56.258Z,47.69
2022-08-24T09:05:34.876Z,47.07
2022-08-24T09:08:11.229Z,46.87
2022-08-24T09:10:51.138Z,46.92
2022-08-24T09:13:35.458Z,47.16
2022-08-24T09:16:10.608Z,46.67
2022-08-24T09:18:49.727Z,46.94
2022-08-24T09:21:35.743Z,46.97
2022-08-24T09:24:18.967Z,47.13
2022-08-24T09:26:45.587Z,46.88
2022-08-24T09:29:32.273Z,47.15
2022-08-24T09:32:13.039Z,46.53
2022-08-24T09:34:43.546Z,45.75
2022-08-24T09:37:09.958Z,45.64
2022-08-24T09:39:45.649Z,45.02
2022-08-24T09:42:21.872Z,45.34
2022-08-24T09:44:48.246Z,45.68
2022-08-24T09:47:17.711Z,45.53
2022-08-24T09:49:56.405Z,45.92
2022-08-24T09:52:29.078Z,45.15
2022-08-24T09:55:02.366Z,45.78
2022-08-24T10:00:30.146Z,45.89
2022-08-24T10:02:59.585Z,45.50
2022-08-24T10:05:44.890Z,44.40
2022-08-24T10:08:30.141Z,43.55
2022-08-24T10:11:14.931Z,43.13
2022-08-24T10:13:44.103Z,42.67
2022-08-24T10:16:30.318Z,42.30
2022-08-24T10:19:00.750Z,40.76
2022-08-24T10:21:39.406Z,41.69
2022-08-24T10:24:29.157Z,41.28
2022-08-24T10:27:03.775Z,41.38
2022-08-24T10:29:30.184Z,40.09
2022-08-24T10:31:59.930Z,38.79
2022-08-24T10:34:51.686Z,37.86
2022-08-24T10:37:37.095Z,39.85
2022-08-24T10:40:14.920Z,38.92
2022-08-24T10:43:07.718Z,36.42
2022-08-24T10:45:52.834Z,38.56
2022-08-24T10:48:33.317Z,40.01
2022-08-24T10:51:19.967Z,40.13
2022-08-24T10:53:51.026Z,39.40
2022-08-24T10:56:19.618Z,38.58
2022-08-24T10:59:00.161Z,37.86
2022-08-24T11:01:32.090Z,38.54
2022-08-24T11:04:00.905Z,37.79
2022-08-24T11:06:32.630Z,36.28
2022-08-24T11:08:59.128Z,35.05
2022-08-24T11:11:27.390Z,36.25
2022-08-24T11:14:02.006Z,35.45
2022-08-24T11:16:36.967Z,34.91
2022-08-24T11:19:06.412Z,37.05
2022-08-24T11:21:41.664Z,37.60
2022-08-24T11:24:11.211Z,37.61
2022-08-24T11:26:56.400Z,37.10
2022-08-24T11:29:27.631Z,37.17
2022-08-24T11:31:54.187Z,33.83
2022-08-24T11:34:31.688Z,33.95
2022-08-24T11:36:58.569Z,34.50
2022-08-24T11:39:35.821Z,33.38
2022-08-24T11:42:02.305Z,33.37
2022-08-24T11:44:34.830Z,33.69
2022-08-24T11:47:20.073Z,31.90
2022-08-24T11:49:50.908Z,32.61
2022-08-24T11:52:23.377Z,32.74
2022-08-24T11:55:00.495Z,32.19
2022-08-24T11:57:35.214Z,31.20
2022-08-24T12:00:12.321Z,29.94
2022-08-24T12:02:59.191Z,30.64
2022-08-24T12:05:25.724Z,31.75
2022-08-24T12:08:17.812Z,31.00
2022-08-24T12:10:51.508Z,28.96
2022-08-24T12:13:29.692Z,28.38
2022-08-24T12:16:02.466Z,28.64
2022-08-24T12:18:29.526Z,28.03
2022-08-24T12:20:57.399Z,27.90
2022-08-24T12:23:26.802Z,27.56
2022-08-24T12:26:04.257Z,26.59
2022-08-24T12:28:41.453Z,24.51
2022-08-24T12:31:12.912Z,25.98
2022-08-24T12:33:44.918Z,24.51
2022-08-24T12:36:23.586Z,24.25
2022-08-24T12:38:55.102Z,25.07
2022-08-24T12:41:28.081Z,24.21
2022-08-24T12:43:59.654Z,22.87
2022-08-24T12:46:26.719Z,24.90
2022-08-24T12:48:56.157Z,24.12
2022-08-24T12:51:28.919Z,25.31
2022-08-24T12:53:58.901Z,25.41
2022-08-24T12:56:28.409Z,25.15
2022-08-24T12:58:59.206Z,25.19
2022-08-24T13:01:33.825Z,24.82
2022-08-24T13:04:05.553Z,24.35
2022-08-24T13:06:40.363Z,24.11
2022-08-24T13:09:26.142Z,23.99
2022-08-24T13:11:52.685Z,24.43
2022-08-24T13:14:26.698Z,23.45
2022-08-24T13:16:53.237Z,24.21
2022-08-24T13:19:28.566Z,24.79
2022-08-24T13:21:58.599Z,24.32
2022-08-24T13:24:28.164Z,24.56
2022-08-24T13:26:58.906Z,25.23
2022-08-24T13:29:28.359Z,24.27
2022-08-24T13:31:56.453Z,24.15
2022-08-24T13:34:37.263Z,24.10
2022-08-24T13:37:14.817Z,23.93
2022-08-24T13:39:54.311Z,24.61
2022-08-24T13:42:21.739Z,23.92
2022-08-24T13:44:50.931Z,24.18
2022-08-24T13:47:36.204Z,23.92
2022-08-24T13:50:10.211Z,23.29
2022-08-24T13:52:55.418Z,22.93
2022-08-24T13:55:22.788Z,23.23
2022-08-24T13:57:52.282Z,24.15
2022-08-24T14:01:01.440Z,24.54
2022-08-24T14:03:46.990Z,23.99
2022-08-24T14:06:24.485Z,23.41
2022-08-24T14:08:59.231Z,24.27
2022-08-24T14:11:25.660Z,23.63
2022-08-24T14:14:04.988Z,23.82
2022-08-24T14:16:56.090Z,24.35
2022-08-24T14:19:41.111Z,23.89
2022-08-24T14:22:17.972Z,24.81
2022-08-24T14:25:02.272Z,24.58
2022-08-24T14:27:35.101Z,22.72
2022-08-24T14:30:30.706Z,23.46
2022-08-24T14:33:00.266Z,23.93
2022-08-24T14:35:27.690Z,24.27
2022-08-24T14:38:13.153Z,24.60
2022-08-24T14:40:54.973Z,24.18
2022-08-24T14:43:30.084Z,25.15
2022-08-24T14:46:03.535Z,24.61
2022-08-24T14:48:55.063Z,24.36
2022-08-24T14:51:37.202Z,24.64
2022-08-24T14:54:09.716Z,24.75
2022-08-24T14:56:42.246Z,24.70
2022-08-24T14:59:24.643Z,24.05
2022-08-24T15:02:13.213Z,23.36
2022-08-24T15:04:52.509Z,23.58
2022-08-24T15:07:24.315Z,24.71
2022-08-24T15:09:51.096Z,25.36
2022-08-24T15:12:27.476Z,25.23
2022-08-24T15:14:58.640Z,25.43
2022-08-24T15:17:36.288Z,25.75
2022-08-24T15:20:06.925Z,26.41
2022-08-24T15:22:44.224Z,26.24
2022-08-24T15:25:15.439Z,26.76
2022-08-24T15:27:50.504Z,26.81
2022-08-24T15:30:22.415Z,27.69
2022-08-24T15:32:53.623Z,26.95
2022-08-24T15:35:30.833Z,26.62
2022-08-24T15:37:57.976Z,26.38
2022-08-24T15:40:32.129Z,26.87
2022-08-24T15:43:00.739Z,27.56
2022-08-24T15:45:28.368Z,27.93
2022-08-24T15:47:56.231Z,27.73
2022-08-24T15:50:22.676Z,28.35
2022-08-24T15:52:52.982Z,28.47
2022-08-24T15:55:34.400Z,28.27
2022-08-24T15:58:13.227Z,28.56
2022-08-24T16:00:58.272Z,28.37
2022-08-24T16:03:44.187Z,28.50
2022-08-24T16:06:25.869Z,28.23
2022-08-24T16:09:11.018Z,28.33
2022-08-24T16:11:40.099Z,27.86
2022-08-24T16:14:11.037Z,28.61
2022-08-24T16:16:43.610Z,28.38
2022-08-24T16:19:39.653Z,28.38
2022-08-24T16:22:12.643Z,28.18
2022-08-24T16:24:40.836Z,28.73
2022-08-24T16:27:08.833Z,28.58
2022-08-24T16:29:38.845Z,29.34
2022-08-24T16:32:10.778Z,29.63
2022-08-24T16:34:55.849Z,30.03
2022-08-24T16:37:23.124Z,30.14
2022-08-24T16:39:49.603Z,30.06
2022-08-24T16:42:24.267Z,30.53
2022-08-24T16:44:51.314Z,30.52
2022-08-24T16:47:17.952Z,30.61
2022-08-24T16:49:44.704Z,31.20
2022-08-24T16:52:11.487Z,31.47
2022-08-24T16:54:38.315Z,31.86
2022-08-24T16:57:24.814Z,32.13
2022-08-24T16:59:52.068Z,32.18
2022-08-24T17:02:19.961Z,32.19
2022-08-24T17:04:46.471Z,32.48
2022-08-24T17:07:15.172Z,33.14
2022-08-24T17:09:43.023Z,33.28
2022-08-24T17:12:09.595Z,33.58
2022-08-24T17:14:40.152Z,33.67
2022-08-24T17:17:07.540Z,34.74
2022-08-24T17:19:33.984Z,35.11
2022-08-24T17:22:00.392Z,35.03
2022-08-24T17:24:27.198Z,35.22
2022-08-24T17:26:54.311Z,35.24
2022-08-24T17:29:20.886Z,35.83
2022-08-24T17:31:49.828Z,36.04
2022-08-24T17:34:17.402Z,36.08
2022-08-24T17:36:44.854Z,36.14
2022-08-24T17:39:11.990Z,36.36
2022-08-24T17:41:38.635Z,36.78
2022-08-24T17:44:06.576Z,37.18
2022-08-24T17:46:33.036Z,37.32
2022-08-24T17:48:59.684Z,37.76
2022-08-24T17:51:26.128Z,38.06
2022-08-24T17:53:52.665Z,38.26
2022-08-24T17:56:19.406Z,38.19
2022-08-24T17:59:05.085Z,38.46
2022-08-24T18:01:31.919Z,38.52
2022-08-24T18:03:58.432Z,38.69
2022-08-24T18:06:27.612Z,39.11
2022-08-24T18:08:56.618Z,38.96
2022-08-24T18:11:26.045Z,39.47
2022-08-24T18:13:54.405Z,39.67
2022-08-24T18:16:22.252Z,39.92
2022-08-24T18:18:50.315Z,39.64
2022-08-24T18:21:16.744Z,39.89
2022-08-24T18:23:43.912Z,40.04
2022-08-24T18:26:11.354Z,39.93
2022-08-24T18:28:38.018Z,40.72
2022-08-24T18:31:09.228Z,40.27
2022-08-24T18:33:35.751Z,40.69
2022-08-24T18:36:02.292Z,41.01
2022-08-24T18:38:28.694Z,41.14
2022-08-24T18:40:55.150Z,41.64
2022-08-24T18:43:24.791Z,41.94
2022-08-24T18:45:52.203Z,42.28
2022-08-24T18:48:19.195Z,42.52
2022-08-24T18:50:45.686Z,42.62
2022-08-24T18:53:13.427Z,43.09
2022-08-24T18:55:40.134Z,43.29
2022-08-24T18:58:06.900Z,43.38
2022-08-24T19:00:33.408Z,43.39
2022-08-24T19:03:02.501Z,43.48
2022-08-24T19:05:29.169Z,43.55
2022-08-24T19:07:57.555Z,43.71
2022-08-24T19:10:28.366Z,43.97
2022-08-24T19:13:00.050Z,43.78
2022-08-24T19:15:35.734Z,44.23
2022-08-24T19:18:06.704Z,44.57
2022-08-24T19:20:33.730Z,44.56
2022-08-24T19:23:05.086Z,45.07
2022-08-24T19:25:32.000Z,45.26
2022-08-24T19:27:58.681Z,45.35
2022-08-24T19:30:27.911Z,44.81
2022-08-24T19:32:55.973Z,45.58
2022-08-24T19:35:22.691Z,44.69
2022-08-24T19:37:49.739Z,44.68
2022-08-24T19:40:16.918Z,44.92
2022-08-24T19:42:43.566Z,45.06
2022-08-24T19:45:31.114Z,44.92
2022-08-24T19:47:57.581Z,45.75
2022-08-24T19:50:28.245Z,45.45
2022-08-24T19:52:57.548Z,47.00
2022-08-24T19:55:24.028Z,46.39
2022-08-24T19:57:54.027Z,45.60
2022-08-24T20:00:22.258Z,46.17
2022-08-24T20:02:49.853Z,46.85
2022-08-24T20:05:17.789Z,46.83
2022-08-24T20:07:44.971Z,47.15
2022-08-24T20:10:12.736Z,47.43
2022-08-24T20:12:39.715Z,47.18
2022-08-24T20:15:06.343Z,47.02
2022-08-24T20:17:32.811Z,47.38
2022-08-24T20:19:59.222Z,47.48
2022-08-24T20:22:25.710Z,48.11
2022-08-24T20:24:53.309Z,48.67
2022-08-24T20:27:22.962Z,48.73
2022-08-24T20:29:49.758Z,49.50
2022-08-24T20:32:16.205Z,50.08
2022-08-24T20:34:42.987Z,48.88
2022-08-24T20:37:09.671Z,49.12
2022-08-24T20:39:36.124Z,50.53
2022-08-24T20:42:02.553Z,49.69
2022-08-24T20:44:29.001Z,51.83
2022-08-24T20:46:55.627Z,50.20
2022-08-24T20:49:24.738Z,51.02
2022-08-24T20:51:51.174Z,50.75
2022-08-24T20:54:17.673Z,50.87
2022-08-24T20:56:44.534Z,51.98
2022-08-24T20:59:12.598Z,50.84
2022-08-24T21:01:40.667Z,53.10
2022-08-24T21:04:07.175Z,51.39
2022-08-24T21:06:34.011Z,51.59
2022-08-24T21:09:00.845Z,52.33
2022-08-24T21:11:27.296Z,52.83
2022-08-24T21:13:53.731Z,52.74
2022-08-24T21:16:20.214Z,53.13
2022-08-24T21:18:49.369Z,53.02
2022-08-24T21:21:15.846Z,52.41
2022-08-24T21:23:42.366Z,52.68
2022-08-24T21:26:11.286Z,52.83
2022-08-24T21:28:39.542Z,53.19
2022-08-24T21:31:06.613Z,53.18
2022-08-24T21:33:51.866Z,54.14
2022-08-24T21:36:18.654Z,54.39
2022-08-24T21:38:45.477Z,54.81
2022-08-24T21:41:11.981Z,53.97
2022-08-24T21:43:38.443Z,53.90
2022-08-24T21:46:05.940Z,54.25
2022-08-24T21:48:32.498Z,54.53
2022-08-24T21:50:58.971Z,55.11
2022-08-24T21:53:28.558Z,55.29
2022-08-24T21:55:55.997Z,55.06
2022-08-24T21:58:24.049Z,57.57
2022-08-24T22:00:51.154Z,57.14
2022-08-24T22:03:17.807Z,56.31
2022-08-24T22:05:44.329Z,54.89
2022-08-24T22:08:10.800Z,56.02
2022-08-24T22:10:37.700Z,55.66
2022-08-24T22:13:04.735Z,56.68
2022-08-24T22:15:33.179Z,56.63
2022-08-24T22:18:00.389Z,56.56
2022-08-24T22:20:26.922Z,56.04
2022-08-24T22:22:53.363Z,56.51
2022-08-24T22:25:19.823Z,56.97
2022-08-24T22:27:46.624Z,56.50
2022-08-24T22:30:14.904Z,57.08
2022-08-24T22:32:41.352Z,56.76
2022-08-24T22:35:08.122Z,57.82
2022-08-24T22:37:34.802Z,56.82
2022-08-24T22:40:02.354Z,56.68
2022-08-24T22:42:30.083Z,55.90
2022-08-24T22:44:58.527Z,56.78
2022-08-24T22:47:24.956Z,57.08
2022-08-24T22:49:51.424Z,58.67
2022-08-24T22:52:18.645Z,57.61
2022-08-24T22:54:45.154Z,58.93
2022-08-24T22:57:11.568Z,58.69
2022-08-24T22:59:40.509Z,59.36
2022-08-24T23:02:11.253Z,60.02
2022-08-24T23:04:40.212Z,59.73
2022-08-24T23:07:07.940Z,60.34
2022-08-24T23:09:44.772Z,60.17
2022-08-24T23:12:13.127Z,60.40
2022-08-24T23:14:39.663Z,60.18
2022-08-24T23:17:06.078Z,59.45
2022-08-24T23:19:51.116Z,60.05
2022-08-24T23:22:18.708Z,60.24
2022-08-24T23:24:46.116Z,60.75
2022-08-24T23:27:13.446Z,60.11
2022-08-24T23:29:40.006Z,61.33
2022-08-24T23:32:07.129Z,61.68
2022-08-24T23:34:34.244Z,62.06
2022-08-24T23:37:00.873Z,62.99
2022-08-24T23:39:27.527Z,62.14
2022-08-24T23:41:54.161Z,63.01
2022-08-24T23:44:22.701Z,61.50
2022-08-24T23:46:49.205Z,61.98
2022-08-24T23:49:17.311Z,62.49
2022-08-24T23:51:43.847Z,63.30
2022-08-24T23:54:10.615Z,63.18
2022-08-24T23:56:37.843Z,63.87
2022-08-24T23:59:06.500Z,63.63
